sensor_id;sensor_type;location;lat;lon;timestamp;temperature;humidity
25933;DHT22;13731;51.166;4.474;2023-06-26T00:01:19;23.70;1.00
25933;DHT22;13731;51.166;4.474;2023-06-26T00:03:48;23.70;1.00
25933;DHT22;13731;51.166;4.474;2023-06-26T00:06:13;23.60;1.00
25933;DHT22;13731;51.166;4.474;2023-06-26T00:08:39;23.50;1.00
25933;DHT22;13731;51.166;4.474;2023-06-26T00:11:06;23.70;1.00
25933;DHT22;13731;51.166;4.474;2023-06-26T00:13:31;23.50;1.00
25933;DHT22;13731;51.166;4.474;2023-06-26T00:15:57;23.30;1.00
25933;DHT22;13731;51.166;4.474;2023-06-26T00:18:23;23.20;1.00
25933;DHT22;13731;51.166;4.474;2023-06-26T00:20:49;23.10;1.00
25933;DHT22;13731;51.166;4.474;2023-06-26T00:23:18;23.00;2.90
25933;DHT22;13731;51.166;4.474;2023-06-26T00:25:44;23.00;17.30
25933;DHT22;13731;51.166;4.474;2023-06-26T00:28:10;23.00;20.50
25933;DHT22;13731;51.166;4.474;2023-06-26T00:30:37;23.00;25.00
25933;DHT22;13731;51.166;4.474;2023-06-26T00:33:03;22.90;37.30
25933;DHT22;13731;51.166;4.474;2023-06-26T00:35:30;22.80;49.00
25933;DHT22;13731;51.166;4.474;2023-06-26T00:37:56;22.70;82.10
25933;DHT22;13731;51.166;4.474;2023-06-26T00:40:22;22.60;99.80
25933;DHT22;13731;51.166;4.474;2023-06-26T00:42:48;22.60;99.90
25933;DHT22;13731;51.166;4.474;2023-06-26T00:45:13;22.50;99.90
25933;DHT22;13731;51.166;4.474;2023-06-26T00:47:39;22.50;99.90
25933;DHT22;13731;51.166;4.474;2023-06-26T00:50:05;22.50;99.90
25933;DHT22;13731;51.166;4.474;2023-06-26T00:52:31;22.50;99.90
25933;DHT22;13731;51.166;4.474;2023-06-26T00:54:59;22.50;99.90
25933;DHT22;13731;51.166;4.474;2023-06-26T00:57:24;22.60;99.90
25933;DHT22;13731;51.166;4.474;2023-06-26T00:59:52;22.50;99.90
25933;DHT22;13731;51.166;4.474;2023-06-26T01:02:20;22.40;99.90
25933;DHT22;13731;51.166;4.474;2023-06-26T01:04:49;22.50;99.90
25933;DHT22;13731;51.166;4.474;2023-06-26T01:07:16;22.40;99.90
25933;DHT22;13731;51.166;4.474;2023-06-26T01:09:44;22.30;99.90
25933;DHT22;13731;51.166;4.474;2023-06-26T01:12:10;22.30;99.90
25933;DHT22;13731;51.166;4.474;2023-06-26T01:14:36;22.30;99.90
25933;DHT22;13731;51.166;4.474;2023-06-26T01:17:02;22.20;99.90
25933;DHT22;13731;51.166;4.474;2023-06-26T01:19:28;22.20;99.90
25933;DHT22;13731;51.166;4.474;2023-06-26T01:21:56;22.20;99.90
25933;DHT22;13731;51.166;4.474;2023-06-26T01:24:24;22.10;99.90
25933;DHT22;13731;51.166;4.474;2023-06-26T01:26:53;22.00;99.90
25933;DHT22;13731;51.166;4.474;2023-06-26T01:29:19;21.90;99.90
25933;DHT22;13731;51.166;4.474;2023-06-26T01:31:46;21.80;99.90
25933;DHT22;13731;51.166;4.474;2023-06-26T01:34:14;21.90;99.90
25933;DHT22;13731;51.166;4.474;2023-06-26T01:36:40;21.90;99.90
25933;DHT22;13731;51.166;4.474;2023-06-26T01:39:06;21.90;99.90
25933;DHT22;13731;51.166;4.474;2023-06-26T01:41:34;21.90;99.90
25933;DHT22;13731;51.166;4.474;2023-06-26T01:49:03;21.80;99.90
25933;DHT22;13731;51.166;4.474;2023-06-26T01:51:32;21.70;99.90
25933;DHT22;13731;51.166;4.474;2023-06-26T01:54:01;21.60;99.90
25933;DHT22;13731;51.166;4.474;2023-06-26T01:56:27;21.40;1.00
25933;DHT22;13731;51.166;4.474;2023-06-26T01:58:54;21.40;1.00
25933;DHT22;13731;51.166;4.474;2023-06-26T02:01:20;21.50;1.00
25933;DHT22;13731;51.166;4.474;2023-06-26T02:03:47;21.50;1.00
25933;DHT22;13731;51.166;4.474;2023-06-26T02:06:13;21.50;1.00
25933;DHT22;13731;51.166;4.474;2023-06-26T02:08:38;21.40;1.00
25933;DHT22;13731;51.166;4.474;2023-06-26T02:11:04;21.40;1.00
25933;DHT22;13731;51.166;4.474;2023-06-26T02:13:30;21.50;1.00
25933;DHT22;13731;51.166;4.474;2023-06-26T02:15:56;21.40;1.00
25933;DHT22;13731;51.166;4.474;2023-06-26T02:18:22;21.30;1.00
25933;DHT22;13731;51.166;4.474;2023-06-26T02:20:48;21.10;90.90
25933;DHT22;13731;51.166;4.474;2023-06-26T02:23:14;21.00;99.90
25933;DHT22;13731;51.166;4.474;2023-06-26T02:25:40;20.90;99.90
25933;DHT22;13731;51.166;4.474;2023-06-26T02:28:09;21.00;99.90
25933;DHT22;13731;51.166;4.474;2023-06-26T02:30:35;20.90;99.90
25933;DHT22;13731;51.166;4.474;2023-06-26T02:33:01;20.90;99.90
25933;DHT22;13731;51.166;4.474;2023-06-26T02:35:26;20.90;99.90
25933;DHT22;13731;51.166;4.474;2023-06-26T02:37:52;20.80;1.00
25933;DHT22;13731;51.166;4.474;2023-06-26T02:40:18;20.80;1.00
25933;DHT22;13731;51.166;4.474;2023-06-26T02:42:44;20.90;1.00
25933;DHT22;13731;51.166;4.474;2023-06-26T02:45:10;20.80;1.00
25933;DHT22;13731;51.166;4.474;2023-06-26T02:47:36;20.90;1.00
25933;DHT22;13731;51.166;4.474;2023-06-26T02:50:06;20.80;1.00
25933;DHT22;13731;51.166;4.474;2023-06-26T02:52:45;20.80;1.00
25933;DHT22;13731;51.166;4.474;2023-06-26T02:55:13;20.90;1.00
25933;DHT22;13731;51.166;4.474;2023-06-26T02:57:39;21.00;1.00
25933;DHT22;13731;51.166;4.474;2023-06-26T03:00:05;21.10;1.00
25933;DHT22;13731;51.166;4.474;2023-06-26T03:02:36;20.80;99.90
25933;DHT22;13731;51.166;4.474;2023-06-26T03:05:07;20.50;1.00
25933;DHT22;13731;51.166;4.474;2023-06-26T03:07:34;20.50;1.00
25933;DHT22;13731;51.166;4.474;2023-06-26T03:10:00;20.60;1.00
25933;DHT22;13731;51.166;4.474;2023-06-26T03:12:26;20.30;99.90
25933;DHT22;13731;51.166;4.474;2023-06-26T03:14:51;20.20;99.90
25933;DHT22;13731;51.166;4.474;2023-06-26T03:17:17;20.10;1.00
25933;DHT22;13731;51.166;4.474;2023-06-26T03:19:46;20.20;1.00
25933;DHT22;13731;51.166;4.474;2023-06-26T03:22:20;20.20;99.90
25933;DHT22;13731;51.166;4.474;2023-06-26T03:24:46;20.10;1.00
25933;DHT22;13731;51.166;4.474;2023-06-26T03:27:12;20.00;64.20
25933;DHT22;13731;51.166;4.474;2023-06-26T03:29:38;19.80;1.00
25933;DHT22;13731;51.166;4.474;2023-06-26T03:32:05;19.80;1.00
25933;DHT22;13731;51.166;4.474;2023-06-26T03:34:31;19.70;1.00
25933;DHT22;13731;51.166;4.474;2023-06-26T03:36:57;19.70;1.00
25933;DHT22;13731;51.166;4.474;2023-06-26T03:39:23;19.70;13.80
25933;DHT22;13731;51.166;4.474;2023-06-26T03:41:49;19.60;6.00
25933;DHT22;13731;51.166;4.474;2023-06-26T03:44:14;19.50;99.90
25933;DHT22;13731;51.166;4.474;2023-06-26T03:46:45;19.60;1.00
25933;DHT22;13731;51.166;4.474;2023-06-26T03:49:11;19.70;1.00
25933;DHT22;13731;51.166;4.474;2023-06-26T03:51:37;19.50;99.90
25933;DHT22;13731;51.166;4.474;2023-06-26T03:54:03;19.50;58.00
25933;DHT22;13731;51.166;4.474;2023-06-26T03:56:28;19.40;99.90
25933;DHT22;13731;51.166;4.474;2023-06-26T03:58:54;19.50;99.90
25933;DHT22;13731;51.166;4.474;2023-06-26T04:01:20;19.30;1.00
25933;DHT22;13731;51.166;4.474;2023-06-26T04:03:48;19.20;99.90
25933;DHT22;13731;51.166;4.474;2023-06-26T04:06:14;19.20;99.90
25933;DHT22;13731;51.166;4.474;2023-06-26T04:08:39;19.20;1.00
25933;DHT22;13731;51.166;4.474;2023-06-26T04:11:05;19.20;18.70
25933;DHT22;13731;51.166;4.474;2023-06-26T04:13:32;19.20;8.40
25933;DHT22;13731;51.166;4.474;2023-06-26T04:15:57;19.30;99.90
25933;DHT22;13731;51.166;4.474;2023-06-26T04:18:23;19.30;99.90
25933;DHT22;13731;51.166;4.474;2023-06-26T04:21:10;19.30;99.90
25933;DHT22;13731;51.166;4.474;2023-06-26T04:23:36;19.20;99.90
25933;DHT22;13731;51.166;4.474;2023-06-26T04:26:03;19.20;99.90
25933;DHT22;13731;51.166;4.474;2023-06-26T04:28:33;19.20;99.90
25933;DHT22;13731;51.166;4.474;2023-06-26T04:31:00;19.10;1.00
25933;DHT22;13731;51.166;4.474;2023-06-26T04:33:26;19.10;1.00
25933;DHT22;13731;51.166;4.474;2023-06-26T04:35:52;19.10;1.00
25933;DHT22;13731;51.166;4.474;2023-06-26T04:38:18;19.10;1.00
25933;DHT22;13731;51.166;4.474;2023-06-26T04:40:44;19.00;1.00
25933;DHT22;13731;51.166;4.474;2023-06-26T04:43:10;19.10;1.00
25933;DHT22;13731;51.166;4.474;2023-06-26T04:45:36;19.10;99.90
25933;DHT22;13731;51.166;4.474;2023-06-26T04:48:02;19.10;99.90
25933;DHT22;13731;51.166;4.474;2023-06-26T04:50:28;19.10;99.90
25933;DHT22;13731;51.166;4.474;2023-06-26T04:52:54;19.30;1.00
25933;DHT22;13731;51.166;4.474;2023-06-26T04:55:20;19.20;1.00
25933;DHT22;13731;51.166;4.474;2023-06-26T04:57:47;19.00;99.90
25933;DHT22;13731;51.166;4.474;2023-06-26T05:00:13;19.10;1.00
25933;DHT22;13731;51.166;4.474;2023-06-26T05:02:39;19.00;68.60
25933;DHT22;13731;51.166;4.474;2023-06-26T05:05:05;19.10;1.00
25933;DHT22;13731;51.166;4.474;2023-06-26T05:07:30;19.10;1.00
25933;DHT22;13731;51.166;4.474;2023-06-26T05:09:56;19.00;1.00
25933;DHT22;13731;51.166;4.474;2023-06-26T05:12:22;19.00;1.00
25933;DHT22;13731;51.166;4.474;2023-06-26T05:14:47;19.20;99.90
25933;DHT22;13731;51.166;4.474;2023-06-26T05:17:14;19.30;1.00
25933;DHT22;13731;51.166;4.474;2023-06-26T05:19:40;19.00;99.90
25933;DHT22;13731;51.166;4.474;2023-06-26T05:22:06;19.10;99.90
25933;DHT22;13731;51.166;4.474;2023-06-26T05:24:35;19.20;59.00
25933;DHT22;13731;51.166;4.474;2023-06-26T05:27:01;19.20;1.00
25933;DHT22;13731;51.166;4.474;2023-06-26T05:29:27;19.00;99.90
25933;DHT22;13731;51.166;4.474;2023-06-26T05:31:53;19.00;99.90
25933;DHT22;13731;51.166;4.474;2023-06-26T05:34:19;19.00;99.90
25933;DHT22;13731;51.166;4.474;2023-06-26T05:36:45;19.00;1.00
25933;DHT22;13731;51.166;4.474;2023-06-26T05:39:13;19.20;1.00
25933;DHT22;13731;51.166;4.474;2023-06-26T05:41:39;19.20;1.00
25933;DHT22;13731;51.166;4.474;2023-06-26T05:44:05;19.40;99.90
25933;DHT22;13731;51.166;4.474;2023-06-26T05:46:31;19.50;99.90
25933;DHT22;13731;51.166;4.474;2023-06-26T05:48:56;19.70;1.00
25933;DHT22;13731;51.166;4.474;2023-06-26T05:51:22;19.50;1.00
25933;DHT22;13731;51.166;4.474;2023-06-26T05:53:48;19.40;1.00
25933;DHT22;13731;51.166;4.474;2023-06-26T05:56:14;19.60;1.00
25933;DHT22;13731;51.166;4.474;2023-06-26T05:58:40;19.50;1.00
25933;DHT22;13731;51.166;4.474;2023-06-26T06:01:06;19.60;1.00
25933;DHT22;13731;51.166;4.474;2023-06-26T06:03:32;19.70;99.90
25933;DHT22;13731;51.166;4.474;2023-06-26T06:05:58;19.60;99.90
25933;DHT22;13731;51.166;4.474;2023-06-26T06:08:24;19.70;99.90
25933;DHT22;13731;51.166;4.474;2023-06-26T06:10:49;19.90;1.00
25933;DHT22;13731;51.166;4.474;2023-06-26T06:13:15;19.90;1.00
25933;DHT22;13731;51.166;4.474;2023-06-26T06:15:41;20.00;1.00
25933;DHT22;13731;51.166;4.474;2023-06-26T06:18:07;20.00;1.00
25933;DHT22;13731;51.166;4.474;2023-06-26T06:20:32;20.10;99.90
25933;DHT22;13731;51.166;4.474;2023-06-26T06:22:58;20.00;99.90
25933;DHT22;13731;51.166;4.474;2023-06-26T06:25:24;20.20;99.90
25933;DHT22;13731;51.166;4.474;2023-06-26T06:27:49;20.20;99.90
25933;DHT22;13731;51.166;4.474;2023-06-26T06:30:15;20.20;99.90
25933;DHT22;13731;51.166;4.474;2023-06-26T06:32:41;20.00;99.90
25933;DHT22;13731;51.166;4.474;2023-06-26T06:35:07;19.90;99.90
25933;DHT22;13731;51.166;4.474;2023-06-26T06:37:36;20.10;99.90
25933;DHT22;13731;51.166;4.474;2023-06-26T06:40:02;20.20;77.80
25933;DHT22;13731;51.166;4.474;2023-06-26T06:42:29;20.20;99.90
25933;DHT22;13731;51.166;4.474;2023-06-26T06:44:55;20.40;46.30
25933;DHT22;13731;51.166;4.474;2023-06-26T06:47:21;20.50;1.00
25933;DHT22;13731;51.166;4.474;2023-06-26T06:49:47;20.60;1.00
25933;DHT22;13731;51.166;4.474;2023-06-26T06:52:12;20.40;1.00
25933;DHT22;13731;51.166;4.474;2023-06-26T06:54:51;20.40;1.00
25933;DHT22;13731;51.166;4.474;2023-06-26T06:57:17;20.40;1.00
25933;DHT22;13731;51.166;4.474;2023-06-26T06:59:42;20.30;1.00
25933;DHT22;13731;51.166;4.474;2023-06-26T07:02:08;20.40;1.00
25933;DHT22;13731;51.166;4.474;2023-06-26T07:04:34;20.50;1.00
25933;DHT22;13731;51.166;4.474;2023-06-26T07:07:00;20.50;1.00
25933;DHT22;13731;51.166;4.474;2023-06-26T07:09:25;20.70;1.00
25933;DHT22;13731;51.166;4.474;2023-06-26T07:11:51;20.80;1.00
25933;DHT22;13731;51.166;4.474;2023-06-26T07:14:17;20.90;1.00
25933;DHT22;13731;51.166;4.474;2023-06-26T07:16:42;20.90;99.90
25933;DHT22;13731;51.166;4.474;2023-06-26T07:19:08;20.90;99.90
25933;DHT22;13731;51.166;4.474;2023-06-26T07:21:34;21.00;99.90
25933;DHT22;13731;51.166;4.474;2023-06-26T07:23:59;21.00;99.90
25933;DHT22;13731;51.166;4.474;2023-06-26T07:26:25;21.10;99.90
25933;DHT22;13731;51.166;4.474;2023-06-26T07:28:51;21.10;99.90
25933;DHT22;13731;51.166;4.474;2023-06-26T07:31:17;21.30;99.90
25933;DHT22;13731;51.166;4.474;2023-06-26T07:33:42;21.20;99.90
25933;DHT22;13731;51.166;4.474;2023-06-26T07:36:08;20.80;99.90
25933;DHT22;13731;51.166;4.474;2023-06-26T07:38:34;20.80;99.90
25933;DHT22;13731;51.166;4.474;2023-06-26T07:41:00;20.70;99.90
25933;DHT22;13731;51.166;4.474;2023-06-26T07:43:26;20.90;99.90
25933;DHT22;13731;51.166;4.474;2023-06-26T07:45:51;20.90;99.90
25933;DHT22;13731;51.166;4.474;2023-06-26T07:48:18;20.90;99.90
25933;DHT22;13731;51.166;4.474;2023-06-26T07:50:44;20.70;99.90
25933;DHT22;13731;51.166;4.474;2023-06-26T07:53:10;20.80;99.90
25933;DHT22;13731;51.166;4.474;2023-06-26T07:55:36;21.20;99.90
25933;DHT22;13731;51.166;4.474;2023-06-26T07:58:01;21.20;99.90
25933;DHT22;13731;51.166;4.474;2023-06-26T08:00:27;21.00;99.90
25933;DHT22;13731;51.166;4.474;2023-06-26T08:02:53;21.00;99.90
25933;DHT22;13731;51.166;4.474;2023-06-26T08:05:19;21.00;99.90
25933;DHT22;13731;51.166;4.474;2023-06-26T08:07:44;21.10;99.90
25933;DHT22;13731;51.166;4.474;2023-06-26T08:10:10;21.30;99.90
25933;DHT22;13731;51.166;4.474;2023-06-26T08:12:36;21.40;99.90
25933;DHT22;13731;51.166;4.474;2023-06-26T08:15:06;21.40;99.90
25933;DHT22;13731;51.166;4.474;2023-06-26T08:17:31;21.20;99.90
25933;DHT22;13731;51.166;4.474;2023-06-26T08:19:57;21.20;99.90
25933;DHT22;13731;51.166;4.474;2023-06-26T08:22:23;21.30;99.90
25933;DHT22;13731;51.166;4.474;2023-06-26T08:24:49;21.30;99.90
25933;DHT22;13731;51.166;4.474;2023-06-26T08:27:15;21.40;99.90
25933;DHT22;13731;51.166;4.474;2023-06-26T08:29:42;21.40;99.90
25933;DHT22;13731;51.166;4.474;2023-06-26T08:32:08;21.60;99.90
25933;DHT22;13731;51.166;4.474;2023-06-26T08:34:34;21.70;99.90
25933;DHT22;13731;51.166;4.474;2023-06-26T08:37:00;21.70;87.40
25933;DHT22;13731;51.166;4.474;2023-06-26T08:39:25;21.30;90.20
25933;DHT22;13731;51.166;4.474;2023-06-26T08:41:52;21.40;99.40
25933;DHT22;13731;51.166;4.474;2023-06-26T08:44:17;21.60;94.30
25933;DHT22;13731;51.166;4.474;2023-06-26T08:46:43;21.70;67.60
25933;DHT22;13731;51.166;4.474;2023-06-26T08:49:20;21.80;33.90
25933;DHT22;13731;51.166;4.474;2023-06-26T08:51:58;21.80;19.80
25933;DHT22;13731;51.166;4.474;2023-06-26T08:54:31;21.80;15.50
25933;DHT22;13731;51.166;4.474;2023-06-26T08:56:58;21.70;24.90
25933;DHT22;13731;51.166;4.474;2023-06-26T08:59:24;21.80;23.20
25933;DHT22;13731;51.166;4.474;2023-06-26T09:01:50;21.90;21.70
25933;DHT22;13731;51.166;4.474;2023-06-26T09:04:16;21.90;21.40
25933;DHT22;13731;51.166;4.474;2023-06-26T09:06:42;21.90;20.70
25933;DHT22;13731;51.166;4.474;2023-06-26T09:09:07;21.80;18.10
25933;DHT22;13731;51.166;4.474;2023-06-26T09:11:33;21.90;18.00
25933;DHT22;13731;51.166;4.474;2023-06-26T09:13:59;21.90;13.00
25933;DHT22;13731;51.166;4.474;2023-06-26T09:16:25;22.00;15.30
25933;DHT22;13731;51.166;4.474;2023-06-26T09:18:55;22.40;9.80
25933;DHT22;13731;51.166;4.474;2023-06-26T09:21:21;22.70;4.00
25933;DHT22;13731;51.166;4.474;2023-06-26T09:23:48;22.70;1.80
25933;DHT22;13731;51.166;4.474;2023-06-26T09:26:14;22.80;4.50
25933;DHT22;13731;51.166;4.474;2023-06-26T09:28:41;23.10;1.00
25933;DHT22;13731;51.166;4.474;2023-06-26T09:31:07;23.30;1.00
25933;DHT22;13731;51.166;4.474;2023-06-26T09:33:34;22.90;1.00
25933;DHT22;13731;51.166;4.474;2023-06-26T09:36:01;22.80;1.00
25933;DHT22;13731;51.166;4.474;2023-06-26T09:38:27;22.60;1.00
25933;DHT22;13731;51.166;4.474;2023-06-26T09:40:53;22.80;1.00
25933;DHT22;13731;51.166;4.474;2023-06-26T09:43:18;22.90;1.00
25933;DHT22;13731;51.166;4.474;2023-06-26T09:45:44;23.10;1.00
25933;DHT22;13731;51.166;4.474;2023-06-26T09:48:10;23.00;1.00
25933;DHT22;13731;51.166;4.474;2023-06-26T09:50:42;23.10;1.00
25933;DHT22;13731;51.166;4.474;2023-06-26T09:53:12;23.20;1.00
25933;DHT22;13731;51.166;4.474;2023-06-26T09:55:44;23.10;1.00
25933;DHT22;13731;51.166;4.474;2023-06-26T09:58:12;23.10;1.00
25933;DHT22;13731;51.166;4.474;2023-06-26T10:00:40;23.30;1.00
25933;DHT22;13731;51.166;4.474;2023-06-26T10:03:07;23.20;1.00
25933;DHT22;13731;51.166;4.474;2023-06-26T10:05:33;22.90;1.00
25933;DHT22;13731;51.166;4.474;2023-06-26T10:07:59;22.90;1.00
25933;DHT22;13731;51.166;4.474;2023-06-26T10:10:25;23.10;1.00
25933;DHT22;13731;51.166;4.474;2023-06-26T10:12:53;23.20;1.00
25933;DHT22;13731;51.166;4.474;2023-06-26T10:15:20;24.10;1.00
25933;DHT22;13731;51.166;4.474;2023-06-26T10:17:46;24.40;1.00
25933;DHT22;13731;51.166;4.474;2023-06-26T10:20:13;26.30;1.00
25933;DHT22;13731;51.166;4.474;2023-06-26T10:22:41;26.70;1.00
25933;DHT22;13731;51.166;4.474;2023-06-26T10:25:08;25.60;1.00
25933;DHT22;13731;51.166;4.474;2023-06-26T10:27:35;26.10;1.00
25933;DHT22;13731;51.166;4.474;2023-06-26T10:30:04;26.50;1.00
25933;DHT22;13731;51.166;4.474;2023-06-26T10:32:31;27.50;1.00
25933;DHT22;13731;51.166;4.474;2023-06-26T10:34:57;27.30;1.00
25933;DHT22;13731;51.166;4.474;2023-06-26T10:40:08;27.70;1.00
25933;DHT22;13731;51.166;4.474;2023-06-26T10:42:35;27.40;1.00
25933;DHT22;13731;51.166;4.474;2023-06-26T10:45:34;26.70;1.00
25933;DHT22;13731;51.166;4.474;2023-06-26T10:47:53;25.90;1.00
25933;DHT22;13731;51.166;4.474;2023-06-26T10:50:19;26.00;1.00
25933;DHT22;13731;51.166;4.474;2023-06-26T10:52:45;26.50;1.00
25933;DHT22;13731;51.166;4.474;2023-06-26T10:55:13;26.80;1.00
25933;DHT22;13731;51.166;4.474;2023-06-26T10:57:39;27.60;1.00
25933;DHT22;13731;51.166;4.474;2023-06-26T11:00:08;27.60;1.00
25933;DHT22;13731;51.166;4.474;2023-06-26T11:02:57;27.80;1.00
25933;DHT22;13731;51.166;4.474;2023-06-26T11:05:29;27.60;1.00
25933;DHT22;13731;51.166;4.474;2023-06-26T11:08:07;28.10;1.00
25933;DHT22;13731;51.166;4.474;2023-06-26T11:10:53;28.80;1.00
25933;DHT22;13731;51.166;4.474;2023-06-26T11:13:19;28.80;1.00
25933;DHT22;13731;51.166;4.474;2023-06-26T11:15:45;28.80;1.00
25933;DHT22;13731;51.166;4.474;2023-06-26T11:18:12;30.20;1.00
25933;DHT22;13731;51.166;4.474;2023-06-26T11:20:38;30.00;1.00
25933;DHT22;13731;51.166;4.474;2023-06-26T11:23:03;28.30;1.00
25933;DHT22;13731;51.166;4.474;2023-06-26T11:25:29;26.70;1.00
25933;DHT22;13731;51.166;4.474;2023-06-26T11:27:55;26.00;1.00
25933;DHT22;13731;51.166;4.474;2023-06-26T11:30:25;26.00;1.00
25933;DHT22;13731;51.166;4.474;2023-06-26T11:32:51;25.80;1.00
25933;DHT22;13731;51.166;4.474;2023-06-26T11:35:23;25.40;1.00
25933;DHT22;13731;51.166;4.474;2023-06-26T11:37:55;26.30;1.00
25933;DHT22;13731;51.166;4.474;2023-06-26T11:40:22;27.80;1.00
25933;DHT22;13731;51.166;4.474;2023-06-26T11:42:52;29.90;1.00
25933;DHT22;13731;51.166;4.474;2023-06-26T11:45:19;31.40;1.00
25933;DHT22;13731;51.166;4.474;2023-06-26T11:47:45;30.00;1.00
25933;DHT22;13731;51.166;4.474;2023-06-26T11:50:17;28.90;1.00
25933;DHT22;13731;51.166;4.474;2023-06-26T11:52:43;27.90;1.00
25933;DHT22;13731;51.166;4.474;2023-06-26T11:55:09;26.70;1.00
25933;DHT22;13731;51.166;4.474;2023-06-26T11:57:36;25.90;1.00
25933;DHT22;13731;51.166;4.474;2023-06-26T12:00:12;25.40;1.00
25933;DHT22;13731;51.166;4.474;2023-06-26T12:02:38;26.00;1.00
25933;DHT22;13731;51.166;4.474;2023-06-26T12:05:04;28.00;1.00
25933;DHT22;13731;51.166;4.474;2023-06-26T12:07:30;29.70;1.00
25933;DHT22;13731;51.166;4.474;2023-06-26T12:09:56;30.20;1.00
25933;DHT22;13731;51.166;4.474;2023-06-26T12:12:23;29.90;1.00
25933;DHT22;13731;51.166;4.474;2023-06-26T12:14:50;28.70;1.00
25933;DHT22;13731;51.166;4.474;2023-06-26T12:17:16;27.60;1.00
25933;DHT22;13731;51.166;4.474;2023-06-26T12:19:43;27.30;1.00
25933;DHT22;13731;51.166;4.474;2023-06-26T12:22:09;26.80;1.00
25933;DHT22;13731;51.166;4.474;2023-06-26T12:24:36;26.30;1.00
25933;DHT22;13731;51.166;4.474;2023-06-26T12:27:07;26.10;1.00
25933;DHT22;13731;51.166;4.474;2023-06-26T12:29:33;27.30;1.00
25933;DHT22;13731;51.166;4.474;2023-06-26T12:31:59;27.60;1.00
25933;DHT22;13731;51.166;4.474;2023-06-26T12:34:31;27.70;1.00
25933;DHT22;13731;51.166;4.474;2023-06-26T12:37:01;27.50;1.00
25933;DHT22;13731;51.166;4.474;2023-06-26T12:39:28;28.30;1.00
25933;DHT22;13731;51.166;4.474;2023-06-26T12:41:57;29.00;1.00
25933;DHT22;13731;51.166;4.474;2023-06-26T12:46:57;29.90;1.00
25933;DHT22;13731;51.166;4.474;2023-06-26T12:49:33;30.00;1.00
25933;DHT22;13731;51.166;4.474;2023-06-26T12:51:59;30.30;1.00
25933;DHT22;13731;51.166;4.474;2023-06-26T12:54:26;29.70;1.00
25933;DHT22;13731;51.166;4.474;2023-06-26T12:56:52;30.00;1.00
25933;DHT22;13731;51.166;4.474;2023-06-26T12:59:18;29.70;1.00
25933;DHT22;13731;51.166;4.474;2023-06-26T13:01:43;30.30;1.00
25933;DHT22;13731;51.166;4.474;2023-06-26T13:04:09;30.70;1.00
25933;DHT22;13731;51.166;4.474;2023-06-26T13:06:36;29.60;1.00
25933;DHT22;13731;51.166;4.474;2023-06-26T13:09:02;29.00;1.00
25933;DHT22;13731;51.166;4.474;2023-06-26T13:11:30;29.50;1.00
25933;DHT22;13731;51.166;4.474;2023-06-26T13:13:56;29.70;1.00
25933;DHT22;13731;51.166;4.474;2023-06-26T13:16:22;30.50;1.00
25933;DHT22;13731;51.166;4.474;2023-06-26T13:18:49;31.40;1.00
25933;DHT22;13731;51.166;4.474;2023-06-26T13:21:16;30.80;1.00
25933;DHT22;13731;51.166;4.474;2023-06-26T13:23:43;30.40;1.00
25933;DHT22;13731;51.166;4.474;2023-06-26T13:26:09;29.70;1.00
25933;DHT22;13731;51.166;4.474;2023-06-26T13:28:35;29.70;1.00
25933;DHT22;13731;51.166;4.474;2023-06-26T13:31:01;30.50;1.00
25933;DHT22;13731;51.166;4.474;2023-06-26T13:33:27;30.90;1.00
25933;DHT22;13731;51.166;4.474;2023-06-26T13:35:53;30.50;1.00
25933;DHT22;13731;51.166;4.474;2023-06-26T13:38:22;29.20;1.00
25933;DHT22;13731;51.166;4.474;2023-06-26T13:40:52;28.50;1.00
25933;DHT22;13731;51.166;4.474;2023-06-26T13:43:20;29.50;1.00
25933;DHT22;13731;51.166;4.474;2023-06-26T13:45:46;28.80;1.00
25933;DHT22;13731;51.166;4.474;2023-06-26T13:48:12;29.00;1.00
25933;DHT22;13731;51.166;4.474;2023-06-26T13:50:38;29.90;1.00
25933;DHT22;13731;51.166;4.474;2023-06-26T13:53:03;29.80;1.00
25933;DHT22;13731;51.166;4.474;2023-06-26T13:55:29;29.30;1.00
25933;DHT22;13731;51.166;4.474;2023-06-26T13:57:56;28.90;1.00
25933;DHT22;13731;51.166;4.474;2023-06-26T14:00:21;27.80;1.00
25933;DHT22;13731;51.166;4.474;2023-06-26T14:02:48;26.90;1.00
25933;DHT22;13731;51.166;4.474;2023-06-26T14:05:14;26.90;1.00
25933;DHT22;13731;51.166;4.474;2023-06-26T14:07:40;28.30;1.00
25933;DHT22;13731;51.166;4.474;2023-06-26T14:10:06;28.60;1.00
25933;DHT22;13731;51.166;4.474;2023-06-26T14:12:32;29.10;1.00
25933;DHT22;13731;51.166;4.474;2023-06-26T14:14:58;29.40;1.00
25933;DHT22;13731;51.166;4.474;2023-06-26T14:17:25;29.80;1.00
25933;DHT22;13731;51.166;4.474;2023-06-26T14:19:51;30.60;1.00
25933;DHT22;13731;51.166;4.474;2023-06-26T14:22:17;30.00;1.00
25933;DHT22;13731;51.166;4.474;2023-06-26T14:24:43;30.30;1.00
25933;DHT22;13731;51.166;4.474;2023-06-26T14:27:09;29.70;1.00
25933;DHT22;13731;51.166;4.474;2023-06-26T14:29:36;29.00;1.00
25933;DHT22;13731;51.166;4.474;2023-06-26T14:32:02;27.40;1.00
25933;DHT22;13731;51.166;4.474;2023-06-26T14:34:27;27.00;1.00
25933;DHT22;13731;51.166;4.474;2023-06-26T14:36:53;26.80;1.00
25933;DHT22;13731;51.166;4.474;2023-06-26T14:39:19;27.30;1.00
25933;DHT22;13731;51.166;4.474;2023-06-26T14:41:44;28.20;1.00
25933;DHT22;13731;51.166;4.474;2023-06-26T14:44:10;28.90;1.00
25933;DHT22;13731;51.166;4.474;2023-06-26T14:46:36;29.40;1.00
25933;DHT22;13731;51.166;4.474;2023-06-26T14:49:02;28.40;1.00
25933;DHT22;13731;51.166;4.474;2023-06-26T14:51:28;28.60;1.00
25933;DHT22;13731;51.166;4.474;2023-06-26T14:53:54;28.00;1.00
25933;DHT22;13731;51.166;4.474;2023-06-26T14:56:23;27.70;1.00
25933;DHT22;13731;51.166;4.474;2023-06-26T14:58:49;27.40;1.00
25933;DHT22;13731;51.166;4.474;2023-06-26T15:01:16;27.60;1.00
25933;DHT22;13731;51.166;4.474;2023-06-26T15:03:42;27.90;1.00
25933;DHT22;13731;51.166;4.474;2023-06-26T15:06:08;27.70;1.00
25933;DHT22;13731;51.166;4.474;2023-06-26T15:08:34;27.60;1.00
25933;DHT22;13731;51.166;4.474;2023-06-26T15:11:01;27.70;1.00
25933;DHT22;13731;51.166;4.474;2023-06-26T15:13:27;27.50;1.00
25933;DHT22;13731;51.166;4.474;2023-06-26T15:15:52;27.70;1.00
25933;DHT22;13731;51.166;4.474;2023-06-26T15:18:18;27.60;1.00
25933;DHT22;13731;51.166;4.474;2023-06-26T15:20:44;27.40;1.00
25933;DHT22;13731;51.166;4.474;2023-06-26T15:23:10;27.40;1.00
25933;DHT22;13731;51.166;4.474;2023-06-26T15:25:35;27.50;1.00
25933;DHT22;13731;51.166;4.474;2023-06-26T15:28:02;27.70;1.00
25933;DHT22;13731;51.166;4.474;2023-06-26T15:30:28;27.90;1.00
25933;DHT22;13731;51.166;4.474;2023-06-26T15:32:54;28.70;1.00
25933;DHT22;13731;51.166;4.474;2023-06-26T15:35:20;29.00;1.00
25933;DHT22;13731;51.166;4.474;2023-06-26T15:37:46;28.10;1.00
25933;DHT22;13731;51.166;4.474;2023-06-26T15:40:12;27.70;1.00
25933;DHT22;13731;51.166;4.474;2023-06-26T15:42:48;28.20;1.00
25933;DHT22;13731;51.166;4.474;2023-06-26T15:45:14;28.10;1.00
25933;DHT22;13731;51.166;4.474;2023-06-26T15:47:40;27.70;1.00